^^
TXWeather Station Historical Data
Daily Summary for April 04, 2022 Units:  English    Metric   Both
Daily Weekly Monthly Yearly Custom
  High: Low: Average:
Temperature: 79.0 °F 64.0 °F 70.6 °F
Dew Point: 71.0 °F 59.0 °F 65.9 °F
Humidity: 91% 72% 85%
Wind Speed: 15mph 1mph 6.8mph
Wind Gust: 17mph - -
Wind- - SE
Pressure: 29.9 in 29.7 in -
Precipitation: 0.010 in    
Historical Graphs
 
 
Tabular Data for April 04, 2022
Time Temperature Dew Point Pressure Wind Wind Speed Wind Gust Humidity Rainfall Rate (Hourly) solar
00:04 64.0 °F 59.0 °F 29.9 in SE 6 mph 7 mph 84% 0.000 in 0.00 W/m2
00:09 64.0 °F 59.0 °F 29.9 in SE 7 mph 7 mph 84% 0.000 in 0.00 W/m2
00:14 64.0 °F 60.0 °F 29.9 in SE 5 mph 7 mph 85% 0.000 in 0.00 W/m2
00:19 64.0 °F 60.0 °F 29.9 in SE 3 mph 4 mph 85% 0.000 in 0.00 W/m2
00:24 64.0 °F 60.0 °F 29.9 in SE 4 mph 6 mph 85% 0.000 in 0.00 W/m2
00:29 64.0 °F 60.0 °F 29.9 in SE 3 mph 4 mph 85% 0.000 in 0.00 W/m2
00:34 64.0 °F 60.0 °F 29.9 in SE 4 mph 5 mph 85% 0.000 in 0.00 W/m2
00:39 64.0 °F 60.0 °F 29.9 in SE 4 mph 5 mph 85% 0.000 in 0.00 W/m2
00:44 64.0 °F 60.0 °F 29.9 in SE 5 mph 5 mph 86% 0.000 in 0.00 W/m2
00:49 64.0 °F 60.0 °F 29.9 in SE 5 mph 6 mph 86% 0.000 in 0.00 W/m2
00:54 64.0 °F 60.0 °F 29.9 in SSE 5 mph 6 mph 86% 0.000 in 0.00 W/m2
00:59 64.0 °F 60.0 °F 29.9 in SSE 4 mph 5 mph 86% 0.000 in 0.00 W/m2
01:04 64.0 °F 60.0 °F 29.9 in SSE 5 mph 5 mph 86% 0.000 in 0.00 W/m2
01:09 64.0 °F 60.0 °F 29.9 in SSE 6 mph 6 mph 86% 0.000 in 0.00 W/m2
01:14 65.0 °F 60.0 °F 29.9 in SSE 6 mph 6 mph 86% 0.000 in 0.00 W/m2
01:19 65.0 °F 60.0 °F 29.9 in SE 4 mph 4 mph 86% 0.000 in 0.00 W/m2
01:24 64.0 °F 60.0 °F 29.9 in SSE 5 mph 5 mph 86% 0.000 in 0.00 W/m2
01:29 65.0 °F 60.0 °F 29.9 in SSE 7 mph 7 mph 86% 0.000 in 0.00 W/m2
01:34 65.0 °F 60.0 °F 29.9 in SSE 8 mph 10 mph 87% 0.000 in 0.00 W/m2
01:39 65.0 °F 61.0 °F 29.9 in South 8 mph 8 mph 87% 0.000 in 0.00 W/m2
01:44 65.0 °F 61.0 °F 29.9 in SSE 6 mph 8 mph 87% 0.000 in 0.00 W/m2
01:49 65.0 °F 61.0 °F 29.9 in SSE 9 mph 10 mph 87% 0.000 in 0.00 W/m2
01:54 65.0 °F 61.0 °F 29.9 in SSE 10 mph 10 mph 87% 0.000 in 0.00 W/m2
01:59 65.0 °F 61.0 °F 29.9 in SSE 11 mph 13 mph 87% 0.000 in 0.00 W/m2
02:04 66.0 °F 61.0 °F 29.9 in SSE 11 mph 13 mph 86% 0.000 in 0.00 W/m2
02:09 66.0 °F 61.0 °F 29.9 in SSE 10 mph 10 mph 86% 0.000 in 0.00 W/m2
02:14 66.0 °F 61.0 °F 29.9 in SSE 9 mph 11 mph 86% 0.000 in 0.00 W/m2
02:19 66.0 °F 61.0 °F 29.9 in SSE 9 mph 10 mph 85% 0.000 in 0.00 W/m2
02:24 66.0 °F 61.0 °F 29.9 in SSE 11 mph 12 mph 85% 0.000 in 0.00 W/m2
02:29 66.0 °F 61.0 °F 29.9 in SSE 5 mph 6 mph 84% 0.000 in 0.00 W/m2
02:34 66.0 °F 61.0 °F 29.9 in South 6 mph 10 mph 84% 0.000 in 0.00 W/m2
02:39 67.0 °F 62.0 °F 29.9 in SSE 9 mph 11 mph 84% 0.000 in 0.00 W/m2
02:44 67.0 °F 62.0 °F 29.9 in SSE 7 mph 7 mph 84% 0.000 in 0.00 W/m2
02:49 67.0 °F 62.0 °F 29.9 in SSE 7 mph 7 mph 84% 0.000 in 0.00 W/m2
02:54 67.0 °F 62.0 °F 29.9 in South 7 mph 7 mph 83% 0.000 in 0.00 W/m2
02:59 67.0 °F 62.0 °F 29.9 in SSE 7 mph 8 mph 83% 0.000 in 0.00 W/m2
03:04 67.0 °F 62.0 °F 29.9 in SSE 6 mph 7 mph 83% 0.000 in 0.00 W/m2
03:09 67.0 °F 62.0 °F 29.9 in SSE 6 mph 7 mph 83% 0.000 in 0.00 W/m2
03:14 67.0 °F 62.0 °F 29.9 in South 7 mph 9 mph 83% 0.000 in 0.00 W/m2
03:19 68.0 °F 62.0 °F 29.9 in SSE 5 mph 9 mph 83% 0.000 in 0.00 W/m2
03:24 68.0 °F 62.0 °F 29.9 in SSE 7 mph 7 mph 83% 0.000 in 0.00 W/m2
03:29 68.0 °F 62.0 °F 29.9 in SSE 6 mph 7 mph 83% 0.000 in 0.00 W/m2
03:34 68.0 °F 62.0 °F 29.9 in SSE 7 mph 7 mph 83% 0.000 in 0.00 W/m2
03:39 68.0 °F 62.0 °F 29.9 in SE 7 mph 7 mph 83% 0.000 in 0.00 W/m2
03:44 68.0 °F 62.0 °F 29.9 in SE 4 mph 5 mph 83% 0.000 in 0.00 W/m2
03:49 68.0 °F 62.0 °F 29.9 in SE 6 mph 6 mph 83% 0.000 in 0.00 W/m2
03:54 68.0 °F 63.0 °F 29.9 in SSE 6 mph 7 mph 84% 0.000 in 0.00 W/m2
03:59 68.0 °F 63.0 °F 29.9 in SSE 6 mph 6 mph 84% 0.000 in 0.00 W/m2
04:04 68.0 °F 63.0 °F 29.9 in SSE 4 mph 6 mph 84% 0.000 in 0.00 W/m2
04:09 68.0 °F 63.0 °F 29.9 in SSE 3 mph 3 mph 84% 0.000 in 0.00 W/m2
04:14 68.0 °F 63.0 °F 29.9 in SSE 2 mph 2 mph 84% 0.000 in 0.00 W/m2
04:19 68.0 °F 63.0 °F 29.9 in SSE 2 mph 3 mph 84% 0.000 in 0.00 W/m2
04:24 68.0 °F 63.0 °F 29.9 in SSE 4 mph 5 mph 84% 0.000 in 0.00 W/m2
04:29 68.0 °F 63.0 °F 29.9 in SSE 4 mph 4 mph 84% 0.000 in 0.00 W/m2
04:34 68.0 °F 63.0 °F 29.9 in SE 5 mph 5 mph 84% 0.000 in 0.00 W/m2
04:39 68.0 °F 63.0 °F 29.9 in SE 3 mph 3 mph 84% 0.000 in 0.00 W/m2
04:44 68.0 °F 63.0 °F 29.9 in SE 4 mph 4 mph 84% 0.000 in 0.00 W/m2
04:49 68.0 °F 63.0 °F 29.9 in SE 4 mph 4 mph 84% 0.000 in 0.00 W/m2
04:54 68.0 °F 63.0 °F 29.9 in SE 3 mph 3 mph 84% 0.000 in 0.00 W/m2
04:59 68.0 °F 63.0 °F 29.9 in SE 4 mph 4 mph 84% 0.000 in 0.00 W/m2
05:04 68.0 °F 63.0 °F 29.9 in SE 3 mph 3 mph 84% 0.000 in 0.00 W/m2
05:09 68.0 °F 63.0 °F 29.9 in SE 2 mph 2 mph 84% 0.000 in 0.00 W/m2
05:14 68.0 °F 63.0 °F 29.9 in SE 1 mph 3 mph 84% 0.000 in 0.00 W/m2
05:19 68.0 °F 63.0 °F 29.9 in SE 3 mph 3 mph 84% 0.000 in 0.00 W/m2
05:24 68.0 °F 63.0 °F 29.9 in SE 3 mph 3 mph 84% 0.000 in 0.00 W/m2
05:29 68.0 °F 63.0 °F 29.9 in SE 3 mph 3 mph 84% 0.000 in 0.00 W/m2
05:34 68.0 °F 63.0 °F 29.9 in SSE 2 mph 2 mph 85% 0.000 in 0.00 W/m2
05:39 68.0 °F 63.0 °F 29.9 in SSE 3 mph 3 mph 85% 0.000 in 0.00 W/m2
05:44 68.0 °F 63.0 °F 29.9 in SSE 2 mph 3 mph 85% 0.000 in 0.00 W/m2
05:49 68.0 °F 63.0 °F 29.9 in SE 3 mph 3 mph 85% 0.000 in 0.00 W/m2
05:54 68.0 °F 63.0 °F 29.9 in SE 2 mph 3 mph 85% 0.000 in 0.00 W/m2
05:59 68.0 °F 63.0 °F 29.9 in SE 2 mph 2 mph 85% 0.000 in 0.00 W/m2
06:04 68.0 °F 63.0 °F 29.8 in SE 3 mph 3 mph 85% 0.000 in 0.00 W/m2
06:09 68.0 °F 63.0 °F 29.8 in SE 2 mph 2 mph 85% 0.000 in 0.00 W/m2
06:14 68.0 °F 63.0 °F 29.8 in East 4 mph 4 mph 85% 0.000 in 0.00 W/m2
06:19 68.0 °F 63.0 °F 29.8 in ESE 4 mph 4 mph 85% 0.000 in 0.00 W/m2
06:24 68.0 °F 63.0 °F 29.9 in SE 4 mph 5 mph 85% 0.000 in 0.00 W/m2
06:29 68.0 °F 63.0 °F 29.9 in SE 4 mph 5 mph 85% 0.000 in 0.00 W/m2
06:34 68.0 °F 63.0 °F 29.9 in ESE 3 mph 3 mph 85% 0.000 in 0.00 W/m2
06:39 68.0 °F 63.0 °F 29.9 in SE 3 mph 3 mph 85% 0.000 in 0.00 W/m2
06:44 68.0 °F 63.0 °F 29.9 in SE 3 mph 3 mph 85% 0.000 in 0.00 W/m2
06:49 67.0 °F 63.0 °F 29.9 in SE 2 mph 3 mph 85% 0.000 in 0.00 W/m2
06:54 67.0 °F 63.0 °F 29.9 in SE 2 mph 2 mph 86% 0.000 in 0.00 W/m2
06:59 67.0 °F 63.0 °F 29.9 in SE 2 mph 2 mph 86% 0.000 in 0.00 W/m2
07:04 67.0 °F 63.0 °F 29.9 in ESE 2 mph 2 mph 86% 0.000 in 0.00 W/m2
07:09 67.0 °F 63.0 °F 29.9 in ESE 2 mph 3 mph 86% 0.000 in 0.00 W/m2
07:14 67.0 °F 63.0 °F 29.9 in ESE 4 mph 4 mph 86% 0.000 in 5.00 W/m2
07:19 67.0 °F 62.0 °F 29.9 in SE 3 mph 4 mph 86% 0.000 in 9.00 W/m2
07:24 67.0 °F 62.0 °F 29.9 in ESE 3 mph 4 mph 86% 0.000 in 11.00 W/m2
07:29 67.0 °F 63.0 °F 29.9 in ESE 1 mph 2 mph 86% 0.000 in 12.00 W/m2
07:34 67.0 °F 63.0 °F 29.9 in ESE 2 mph 2 mph 87% 0.000 in 16.00 W/m2
07:39 67.0 °F 63.0 °F 29.9 in East 2 mph 3 mph 87% 0.000 in 23.00 W/m2
07:44 67.0 °F 63.0 °F 29.9 in East 3 mph 4 mph 87% 0.000 in 23.00 W/m2
07:49 67.0 °F 63.0 °F 29.9 in East 2 mph 3 mph 87% 0.000 in 26.00 W/m2
07:54 67.0 °F 63.0 °F 29.9 in ESE 3 mph 4 mph 87% 0.000 in 28.00 W/m2
07:59 67.0 °F 63.0 °F 29.9 in ESE 3 mph 3 mph 87% 0.000 in 26.00 W/m2
08:04 67.0 °F 63.0 °F 29.9 in East 3 mph 3 mph 87% 0.000 in 26.00 W/m2
08:09 67.0 °F 64.0 °F 29.9 in East 4 mph 4 mph 88% 0.000 in 47.00 W/m2
08:14 67.0 °F 64.0 °F 29.9 in East 4 mph 4 mph 88% 0.000 in 67.00 W/m2
08:19 68.0 °F 64.0 °F 29.9 in East 2 mph 3 mph 88% 0.000 in 69.00 W/m2
08:24 68.0 °F 64.0 °F 29.9 in East 2 mph 2 mph 88% 0.000 in 74.00 W/m2
08:29 68.0 °F 64.0 °F 29.9 in East 4 mph 4 mph 88% 0.000 in 97.00 W/m2
08:34 68.0 °F 64.0 °F 29.9 in East 3 mph 3 mph 88% 0.000 in 102.00 W/m2
08:39 68.0 °F 64.0 °F 29.9 in East 4 mph 4 mph 88% 0.000 in 121.00 W/m2
08:44 68.0 °F 64.0 °F 29.9 in ESE 3 mph 4 mph 88% 0.000 in 125.00 W/m2
08:49 68.0 °F 64.0 °F 29.9 in ESE 4 mph 4 mph 88% 0.000 in 128.00 W/m2
08:54 68.0 °F 65.0 °F 29.9 in ESE 4 mph 5 mph 88% 0.000 in 169.00 W/m2
08:59 69.0 °F 65.0 °F 29.9 in East 4 mph 4 mph 88% 0.000 in 169.00 W/m2
09:04 69.0 °F 65.0 °F 29.9 in East 6 mph 7 mph 88% 0.000 in 142.00 W/m2
09:09 69.0 °F 65.0 °F 29.9 in East 4 mph 4 mph 88% 0.000 in 155.00 W/m2
09:14 69.0 °F 65.0 °F 29.9 in ESE 3 mph 3 mph 88% 0.000 in 134.00 W/m2
09:19 69.0 °F 65.0 °F 29.9 in East 3 mph 3 mph 87% 0.000 in 102.00 W/m2
09:24 69.0 °F 66.0 °F 29.9 in NE 4 mph 4 mph 87% 0.000 in 121.00 W/m2
09:29 70.0 °F 66.0 °F 29.9 in ENE 4 mph 4 mph 87% 0.000 in 123.00 W/m2
09:34 70.0 °F 66.0 °F 29.9 in ENE 2 mph 3 mph 87% 0.000 in 120.00 W/m2
09:39 70.0 °F 66.0 °F 29.9 in NE 3 mph 3 mph 87% 0.000 in 86.00 W/m2
09:44 70.0 °F 66.0 °F 29.9 in NE 3 mph 3 mph 87% 0.000 in 63.00 W/m2
09:49 70.0 °F 66.0 °F 29.9 in ENE 3 mph 3 mph 87% 0.000 in 44.00 W/m2
09:54 70.0 °F 66.0 °F 29.9 in NNE 3 mph 3 mph 86% 0.000 in 44.00 W/m2
09:59 70.0 °F 66.0 °F 29.9 in East 3 mph 3 mph 86% 0.000 in 32.00 W/m2
10:04 70.0 °F 66.0 °F 29.9 in East 2 mph 3 mph 86% 0.000 in 30.00 W/m2
10:09 70.0 °F 66.0 °F 29.9 in East 3 mph 3 mph 86% 0.000 in 42.00 W/m2
10:14 70.0 °F 66.0 °F 29.9 in ENE 2 mph 3 mph 86% 0.000 in 46.00 W/m2
10:19 70.0 °F 66.0 °F 29.9 in ENE 5 mph 5 mph 86% 0.000 in 84.00 W/m2
10:24 71.0 °F 66.0 °F 29.9 in ENE 4 mph 5 mph 85% 0.000 in 93.00 W/m2
10:29 71.0 °F 66.0 °F 29.9 in East 4 mph 6 mph 85% 0.000 in 118.00 W/m2
10:34 71.0 °F 66.0 °F 29.9 in ENE 6 mph 6 mph 85% 0.000 in 93.00 W/m2
10:39 71.0 °F 66.0 °F 29.9 in ENE 6 mph 6 mph 85% 0.000 in 137.00 W/m2
10:44 71.0 °F 67.0 °F 29.9 in ENE 4 mph 6 mph 86% 0.000 in 148.00 W/m2
10:49 71.0 °F 66.0 °F 29.9 in East 4 mph 5 mph 85% 0.000 in 120.00 W/m2
10:54 71.0 °F 67.0 °F 29.9 in ENE 5 mph 6 mph 85% 0.000 in 134.00 W/m2
10:59 71.0 °F 67.0 °F 29.9 in ENE 8 mph 8 mph 85% 0.000 in 90.00 W/m2
11:04 71.0 °F 67.0 °F 29.9 in ESE 4 mph 6 mph 85% 0.000 in 134.00 W/m2
11:09 72.0 °F 67.0 °F 29.9 in ESE 8 mph 8 mph 85% 0.000 in 134.00 W/m2
11:14 72.0 °F 67.0 °F 29.9 in East 7 mph 10 mph 85% 0.000 in 287.00 W/m2
11:19 72.0 °F 68.0 °F 29.9 in East 7 mph 10 mph 85% 0.000 in 299.00 W/m2
11:24 72.0 °F 67.0 °F 29.9 in East 9 mph 9 mph 84% 0.000 in 299.00 W/m2
11:29 72.0 °F 67.0 °F 29.9 in ESE 7 mph 9 mph 84% 0.000 in 195.00 W/m2
11:34 73.0 °F 68.0 °F 29.9 in ESE 5 mph 5 mph 84% 0.000 in 176.00 W/m2
11:39 73.0 °F 68.0 °F 29.9 in ESE 5 mph 6 mph 84% 0.000 in 183.00 W/m2
11:44 73.0 °F 68.0 °F 29.9 in East 5 mph 5 mph 84% 0.000 in 193.00 W/m2
11:49 73.0 °F 68.0 °F 29.9 in SE 11 mph 13 mph 84% 0.000 in 276.00 W/m2
11:54 74.0 °F 68.0 °F 29.9 in SE 7 mph 13 mph 84% 0.000 in 206.00 W/m2
11:59 74.0 °F 68.0 °F 29.9 in SE 9 mph 10 mph 83% 0.000 in 204.00 W/m2
12:04 74.0 °F 68.0 °F 29.9 in SE 9 mph 10 mph 83% 0.000 in 251.00 W/m2
12:09 75.0 °F 69.0 °F 29.9 in SE 9 mph 9 mph 82% 0.000 in 345.00 W/m2
12:14 75.0 °F 69.0 °F 29.9 in SE 8 mph 11 mph 82% 0.000 in 385.00 W/m2
12:19 76.0 °F 69.0 °F 29.9 in SE 12 mph 12 mph 81% 0.000 in 353.00 W/m2
12:24 76.0 °F 69.0 °F 29.9 in ESE 11 mph 12 mph 80% 0.000 in 457.00 W/m2
12:29 76.0 °F 69.0 °F 29.9 in SE 10 mph 10 mph 79% 0.000 in 362.00 W/m2
12:34 77.0 °F 69.0 °F 29.9 in SE 11 mph 11 mph 79% 0.000 in 406.00 W/m2
12:39 77.0 °F 69.0 °F 29.9 in SE 12 mph 13 mph 78% 0.000 in 406.00 W/m2
12:44 78.0 °F 70.0 °F 29.9 in SE 11 mph 11 mph 78% 0.000 in 657.00 W/m2
12:49 78.0 °F 71.0 °F 29.9 in SE 13 mph 13 mph 78% 0.000 in 664.00 W/m2
12:54 79.0 °F 71.0 °F 29.9 in SE 11 mph 13 mph 77% 0.000 in 584.00 W/m2
12:59 79.0 °F 70.0 °F 29.9 in SE 11 mph 11 mph 74% 0.000 in 380.00 W/m2
13:04 79.0 °F 69.0 °F 29.9 in SE 9 mph 11 mph 72% 0.000 in 204.00 W/m2
13:09 79.0 °F 69.0 °F 29.9 in SE 13 mph 13 mph 72% 0.000 in 134.00 W/m2
13:14 78.0 °F 69.0 °F 29.9 in SE 9 mph 13 mph 73% 0.000 in 151.00 W/m2
13:19 78.0 °F 69.0 °F 29.9 in SE 14 mph 14 mph 73% 0.000 in 251.00 W/m2
13:24 78.0 °F 69.0 °F 29.9 in SE 9 mph 14 mph 74% 0.000 in 283.00 W/m2
13:29 78.0 °F 69.0 °F 29.9 in SE 10 mph 10 mph 74% 0.000 in 193.00 W/m2
13:34 78.0 °F 69.0 °F 29.9 in SE 9 mph 12 mph 74% 0.000 in 109.00 W/m2
13:39 78.0 °F 69.0 °F 29.9 in SE 14 mph 14 mph 74% 0.000 in 155.00 W/m2
13:44 77.0 °F 69.0 °F 29.9 in SE 14 mph 14 mph 75% 0.000 in 130.00 W/m2
13:49 77.0 °F 69.0 °F 29.9 in SE 15 mph 15 mph 76% 0.000 in 107.00 W/m2
13:54 77.0 °F 69.0 °F 29.8 in SE 15 mph 17 mph 77% 0.000 in 204.00 W/m2
13:59 77.0 °F 69.0 °F 29.8 in SE 14 mph 17 mph 77% 0.000 in 204.00 W/m2
14:04 76.0 °F 69.0 °F 29.8 in SE 12 mph 14 mph 77% 0.000 in 132.00 W/m2
14:09 76.0 °F 68.0 °F 29.8 in SE 7 mph 11 mph 77% 0.000 in 102.00 W/m2
14:14 76.0 °F 68.0 °F 29.8 in SE 12 mph 14 mph 78% 0.000 in 105.00 W/m2
14:19 76.0 °F 68.0 °F 29.8 in SE 12 mph 14 mph 78% 0.000 in 105.00 W/m2
14:24 76.0 °F 69.0 °F 29.8 in SE 10 mph 12 mph 79% 0.000 in 91.00 W/m2
14:29 75.0 °F 68.0 °F 29.8 in SE 9 mph 13 mph 79% 0.000 in 171.00 W/m2
14:34 75.0 °F 68.0 °F 29.8 in SE 11 mph 13 mph 79% 0.000 in 174.00 W/m2
14:39 75.0 °F 68.0 °F 29.8 in SE 11 mph 11 mph 79% 0.000 in 151.00 W/m2
14:44 75.0 °F 69.0 °F 29.8 in SE 11 mph 11 mph 80% 0.000 in 188.00 W/m2
14:49 76.0 °F 69.0 °F 29.8 in SE 10 mph 11 mph 80% 0.000 in 272.00 W/m2
14:54 76.0 °F 69.0 °F 29.8 in SE 12 mph 12 mph 80% 0.000 in 253.00 W/m2
14:59 76.0 °F 69.0 °F 29.8 in SE 9 mph 12 mph 80% 0.000 in 142.00 W/m2
15:04 76.0 °F 69.0 °F 29.8 in SE 13 mph 13 mph 80% 0.000 in 70.00 W/m2
15:09 75.0 °F 69.0 °F 29.8 in SE 11 mph 13 mph 81% 0.000 in 100.00 W/m2
15:14 75.0 °F 69.0 °F 29.8 in SE 9 mph 11 mph 82% 0.000 in 137.00 W/m2
15:24 75.0 °F 69.0 °F 29.8 in SE 8 mph 9 mph 83% 0.000 in 158.00 W/m2
15:29 75.0 °F 69.0 °F 29.8 in SE 5 mph 7 mph 84% 0.000 in 116.00 W/m2
15:34 75.0 °F 69.0 °F 29.8 in SE 11 mph 11 mph 84% 0.000 in 128.00 W/m2
15:39 75.0 °F 69.0 °F 29.8 in SE 9 mph 10 mph 84% 0.000 in 104.00 W/m2
15:44 74.0 °F 69.0 °F 29.8 in SE 11 mph 12 mph 84% 0.000 in 81.00 W/m2
15:49 74.0 °F 69.0 °F 29.8 in SE 9 mph 12 mph 84% 0.000 in 104.00 W/m2
15:54 74.0 °F 69.0 °F 29.8 in SE 10 mph 10 mph 84% 0.000 in 104.00 W/m2
15:59 74.0 °F 69.0 °F 29.8 in SE 8 mph 10 mph 84% 0.000 in 111.00 W/m2
16:04 74.0 °F 69.0 °F 29.8 in SE 8 mph 9 mph 85% 0.000 in 114.00 W/m2
16:09 74.0 °F 69.0 °F 29.8 in SE 7 mph 9 mph 85% 0.000 in 128.00 W/m2
16:14 74.0 °F 69.0 °F 29.8 in SE 9 mph 11 mph 85% 0.000 in 132.00 W/m2
16:19 74.0 °F 69.0 °F 29.8 in SE 9 mph 9 mph 85% 0.000 in 144.00 W/m2
16:24 74.0 °F 69.0 °F 29.8 in SE 8 mph 9 mph 85% 0.000 in 149.00 W/m2
16:29 74.0 °F 69.0 °F 29.8 in SE 9 mph 9 mph 85% 0.000 in 178.00 W/m2
16:34 74.0 °F 69.0 °F 29.8 in SE 5 mph 9 mph 85% 0.000 in 178.00 W/m2
16:39 74.0 °F 69.0 °F 29.8 in SE 6 mph 8 mph 85% 0.000 in 169.00 W/m2
16:44 74.0 °F 69.0 °F 29.8 in SE 10 mph 10 mph 85% 0.000 in 162.00 W/m2
16:49 74.0 °F 69.0 °F 29.8 in SE 8 mph 8 mph 85% 0.000 in 176.00 W/m2
16:54 74.0 °F 69.0 °F 29.8 in SE 7 mph 7 mph 85% 0.000 in 193.00 W/m2
16:59 74.0 °F 69.0 °F 29.8 in SE 8 mph 9 mph 85% 0.000 in 193.00 W/m2
17:04 74.0 °F 69.0 °F 29.8 in ESE 9 mph 9 mph 84% 0.000 in 118.00 W/m2
17:09 74.0 °F 69.0 °F 29.8 in SE 7 mph 7 mph 84% 0.000 in 93.00 W/m2
17:14 74.0 °F 69.0 °F 29.8 in SE 8 mph 8 mph 84% 0.000 in 83.00 W/m2
17:19 74.0 °F 69.0 °F 29.8 in SE 7 mph 8 mph 84% 0.000 in 79.00 W/m2
17:24 74.0 °F 69.0 °F 29.8 in SE 7 mph 9 mph 83% 0.000 in 49.00 W/m2
17:29 74.0 °F 69.0 °F 29.8 in SE 11 mph 11 mph 83% 0.000 in 39.00 W/m2
17:34 74.0 °F 68.0 °F 29.8 in SE 10 mph 11 mph 83% 0.000 in 37.00 W/m2
17:39 74.0 °F 69.0 °F 29.8 in SE 12 mph 12 mph 84% 0.000 in 30.00 W/m2
17:44 74.0 °F 69.0 °F 29.8 in SE 9 mph 12 mph 84% 0.000 in 26.00 W/m2
17:49 74.0 °F 68.0 °F 29.8 in SE 12 mph 12 mph 84% 0.000 in 37.00 W/m2
17:54 74.0 °F 69.0 °F 29.8 in SE 12 mph 12 mph 85% 0.000 in 54.00 W/m2
17:59 73.0 °F 68.0 °F 29.8 in SE 14 mph 15 mph 85% 0.000 in 60.00 W/m2
18:04 73.0 °F 69.0 °F 29.8 in SE 9 mph 15 mph 86% 0.000 in 53.00 W/m2
18:09 73.0 °F 69.0 °F 29.7 in SE 12 mph 13 mph 86% 0.000 in 53.00 W/m2
18:14 73.0 °F 68.0 °F 29.7 in SE 12 mph 14 mph 86% 0.000 in 37.00 W/m2
18:19 73.0 °F 68.0 °F 29.7 in SE 13 mph 14 mph 86% 0.000 in 32.00 W/m2
18:29 72.0 °F 68.0 °F 29.7 in SE 12 mph 14 mph 86% 0.000 in 21.00 W/m2
18:34 72.0 °F 68.0 °F 29.7 in SE 4 mph 9 mph 86% 0.000 in 26.00 W/m2
18:39 72.0 °F 68.0 °F 29.7 in SE 9 mph 11 mph 87% 0.000 in 14.00 W/m2
18:44 72.0 °F 68.0 °F 29.7 in SE 12 mph 12 mph 87% 0.000 in 14.00 W/m2
18:49 72.0 °F 68.0 °F 29.7 in SE 11 mph 12 mph 87% 0.000 in 12.00 W/m2
18:54 72.0 °F 68.0 °F 29.7 in ESE 5 mph 6 mph 87% 0.000 in 16.00 W/m2
18:59 72.0 °F 68.0 °F 29.7 in SE 11 mph 13 mph 87% 0.000 in 12.00 W/m2
19:04 72.0 °F 68.0 °F 29.7 in SE 12 mph 12 mph 87% 0.000 in 11.00 W/m2
19:09 72.0 °F 68.0 °F 29.7 in SE 6 mph 8 mph 88% 0.000 in 11.00 W/m2
19:14 72.0 °F 68.0 °F 29.7 in SE 10 mph 11 mph 88% 0.000 in 7.00 W/m2
19:19 72.0 °F 68.0 °F 29.7 in SE 9 mph 11 mph 88% 0.000 in 7.00 W/m2
19:24 72.0 °F 68.0 °F 29.7 in SE 8 mph 11 mph 88% 0.000 in 5.00 W/m2
19:29 72.0 °F 68.0 °F 29.7 in SE 8 mph 12 mph 88% 0.000 in 0.00 W/m2
19:34 72.0 °F 68.0 °F 29.7 in SE 8 mph 12 mph 88% 0.000 in 0.00 W/m2
19:39 72.0 °F 68.0 °F 29.7 in SE 10 mph 10 mph 88% 0.000 in 0.00 W/m2
19:44 71.0 °F 68.0 °F 29.7 in SE 8 mph 11 mph 88% 0.000 in 0.00 W/m2
19:49 71.0 °F 68.0 °F 29.7 in SE 10 mph 12 mph 88% 0.000 in 0.00 W/m2
19:54 71.0 °F 68.0 °F 29.7 in SE 12 mph 14 mph 88% 0.000 in 0.00 W/m2
19:59 71.0 °F 68.0 °F 29.7 in SE 8 mph 11 mph 88% 0.000 in 0.00 W/m2
20:04 71.0 °F 68.0 °F 29.7 in SE 9 mph 9 mph 89% 0.000 in 0.00 W/m2
20:09 71.0 °F 68.0 °F 29.7 in SE 8 mph 9 mph 89% 0.000 in 0.00 W/m2
20:14 71.0 °F 68.0 °F 29.7 in SE 8 mph 8 mph 89% 0.000 in 0.00 W/m2
20:19 71.0 °F 68.0 °F 29.7 in SE 10 mph 11 mph 89% 0.000 in 0.00 W/m2
20:24 71.0 °F 68.0 °F 29.7 in SE 9 mph 10 mph 89% 0.000 in 0.00 W/m2
20:29 71.0 °F 68.0 °F 29.7 in SE 8 mph 10 mph 89% 0.000 in 0.00 W/m2
20:34 71.0 °F 68.0 °F 29.7 in SE 10 mph 10 mph 89% 0.000 in 0.00 W/m2
20:39 71.0 °F 68.0 °F 29.7 in SE 10 mph 10 mph 89% 0.000 in 0.00 W/m2
20:44 71.0 °F 68.0 °F 29.7 in SE 13 mph 13 mph 89% 0.000 in 0.00 W/m2
20:49 71.0 °F 68.0 °F 29.7 in SE 8 mph 13 mph 89% 0.000 in 0.00 W/m2
20:54 71.0 °F 68.0 °F 29.8 in SE 8 mph 9 mph 89% 0.000 in 0.00 W/m2
20:59 71.0 °F 68.0 °F 29.7 in SE 6 mph 9 mph 89% 0.000 in 0.00 W/m2
21:04 71.0 °F 68.0 °F 29.7 in SE 9 mph 9 mph 89% 0.000 in 0.00 W/m2
21:09 71.0 °F 68.0 °F 29.7 in SE 8 mph 8 mph 90% 0.000 in 0.00 W/m2
21:14 71.0 °F 68.0 °F 29.7 in SE 6 mph 7 mph 90% 0.000 in 0.00 W/m2
21:19 71.0 °F 68.0 °F 29.7 in SSE 5 mph 6 mph 90% 0.000 in 0.00 W/m2
21:24 71.0 °F 68.0 °F 29.7 in SE 7 mph 8 mph 90% 0.000 in 0.00 W/m2
21:29 71.0 °F 68.0 °F 29.8 in SE 7 mph 8 mph 90% 0.000 in 0.00 W/m2
21:34 71.0 °F 68.0 °F 29.8 in SE 7 mph 8 mph 90% 0.000 in 0.00 W/m2
21:39 71.0 °F 68.0 °F 29.8 in SE 6 mph 8 mph 90% 0.000 in 0.00 W/m2
21:44 71.0 °F 68.0 °F 29.8 in SSE 8 mph 8 mph 90% 0.000 in 0.00 W/m2
21:49 71.0 °F 68.0 °F 29.8 in SE 8 mph 8 mph 90% 0.000 in 0.00 W/m2
21:54 71.0 °F 68.0 °F 29.8 in SE 7 mph 7 mph 90% 0.000 in 0.00 W/m2
21:59 71.0 °F 68.0 °F 29.8 in SE 7 mph 8 mph 90% 0.000 in 0.00 W/m2
22:04 71.0 °F 68.0 °F 29.8 in SE 5 mph 6 mph 90% 0.000 in 0.00 W/m2
22:09 71.0 °F 68.0 °F 29.8 in SE 5 mph 7 mph 90% 0.000 in 0.00 W/m2
22:14 71.0 °F 68.0 °F 29.8 in SE 5 mph 5 mph 90% 0.000 in 0.00 W/m2
22:19 71.0 °F 68.0 °F 29.8 in SE 4 mph 7 mph 90% 0.000 in 0.00 W/m2
22:24 71.0 °F 68.0 °F 29.8 in SE 7 mph 7 mph 90% 0.000 in 0.00 W/m2
22:29 71.0 °F 68.0 °F 29.8 in SE 7 mph 8 mph 90% 0.000 in 0.00 W/m2
22:34 71.0 °F 68.0 °F 29.8 in SE 7 mph 8 mph 91% 0.000 in 0.00 W/m2
22:39 71.0 °F 68.0 °F 29.8 in SE 7 mph 7 mph 91% 0.000 in 0.00 W/m2
22:44 71.0 °F 68.0 °F 29.8 in SE 6 mph 7 mph 91% 0.000 in 0.00 W/m2
22:49 71.0 °F 68.0 °F 29.8 in SSE 7 mph 7 mph 91% 0.000 in 0.00 W/m2
22:54 71.0 °F 68.0 °F 29.8 in SE 4 mph 7 mph 91% 0.000 in 0.00 W/m2
22:59 71.0 °F 68.0 °F 29.8 in SSE 4 mph 5 mph 91% 0.000 in 0.00 W/m2
23:04 71.0 °F 68.0 °F 29.8 in SSE 5 mph 5 mph 91% 0.000 in 0.00 W/m2
23:09 71.0 °F 68.0 °F 29.8 in SSE 7 mph 7 mph 91% 0.000 in 0.00 W/m2
23:14 71.0 °F 68.0 °F 29.7 in SE 7 mph 7 mph 91% 0.000 in 0.00 W/m2
23:19 71.0 °F 68.0 °F 29.7 in SE 7 mph 8 mph 91% 0.000 in 0.00 W/m2
23:24 71.0 °F 68.0 °F 29.7 in SE 8 mph 9 mph 91% 0.000 in 0.00 W/m2
23:29 71.0 °F 68.0 °F 29.7 in SSE 8 mph 9 mph 91% 0.010 in 0.00 W/m2
23:34 71.0 °F 68.0 °F 29.7 in SE 5 mph 7 mph 91% 0.010 in 0.00 W/m2
23:39 71.0 °F 68.0 °F 29.7 in SSE 6 mph 8 mph 91% 0.010 in 0.00 W/m2
23:44 71.0 °F 68.0 °F 29.7 in SSE 7 mph 8 mph 91% 0.010 in 0.00 W/m2
23:49 71.0 °F 69.0 °F 29.7 in SSE 6 mph 7 mph 91% 0.010 in 0.00 W/m2
23:54 71.0 °F 69.0 °F 29.7 in SSE 6 mph 7 mph 91% 0.010 in 0.00 W/m2
23:59 71.0 °F 69.0 °F 29.7 in SSE 6 mph 6 mph 91% 0.010 in 0.00 W/m2
Villages of Bridgestone, Spring, TX USA
Compliments of Weather Underground - 4 mb